createdAt,value
2018-09-18T00:02:10.959Z,14.60
2018-09-18T00:04:39.513Z,14.20
2018-09-18T00:07:08.028Z,14.10
2018-09-18T00:09:36.487Z,14.20
2018-09-18T00:12:05.017Z,14.50
2018-09-18T00:14:33.534Z,14.40
2018-09-18T00:17:02.049Z,14.50
2018-09-18T00:19:30.615Z,14.10
2018-09-18T00:21:59.093Z,14.00
2018-09-18T00:24:27.630Z,14.30
2018-09-18T00:26:56.071Z,14.20
2018-09-18T00:29:24.537Z,14.20
2018-09-18T00:31:52.968Z,14.20
2018-09-18T00:34:21.555Z,14.20
2018-09-18T00:36:50.026Z,14.10
2018-09-18T00:39:18.521Z,14.10
2018-09-18T00:41:46.970Z,14.10
2018-09-18T00:44:15.526Z,13.90
2018-09-18T00:46:44.085Z,13.90
2018-09-18T00:49:12.593Z,14.10
2018-09-18T00:51:41.134Z,13.90
2018-09-18T00:54:13.532Z,13.90
2018-09-18T00:56:42.101Z,13.70
2018-09-18T00:59:10.627Z,13.80
2018-09-18T01:01:39.114Z,13.50
2018-09-18T01:04:07.606Z,13.90
2018-09-18T01:06:36.153Z,13.60
2018-09-18T01:09:11.274Z,13.60
2018-09-18T01:11:40.047Z,13.80
2018-09-18T01:14:08.664Z,13.70
2018-09-18T01:16:37.540Z,13.70
2018-09-18T01:19:06.094Z,13.60
2018-09-18T01:21:34.586Z,13.30
2018-09-18T01:24:03.145Z,13.30
2018-09-18T01:26:31.688Z,13.10
2018-09-18T01:29:00.122Z,13.30
2018-09-18T01:31:28.623Z,13.30
2018-09-18T01:33:57.079Z,13.50
2018-09-18T01:36:25.587Z,13.60
2018-09-18T01:38:54.097Z,13.50
2018-09-18T01:41:22.608Z,13.60
2018-09-18T01:43:51.270Z,13.40
2018-09-18T01:46:19.638Z,13.20
2018-09-18T01:48:48.111Z,13.30
2018-09-18T01:51:16.586Z,13.40
2018-09-18T01:53:45.132Z,13.70
2018-09-18T01:56:13.582Z,13.70
2018-09-18T01:58:42.042Z,13.50
2018-09-18T02:01:10.565Z,13.30
2018-09-18T02:03:39.080Z,13.30
2018-09-18T02:06:07.556Z,13.30
2018-09-18T02:08:36.068Z,13.40
2018-09-18T02:11:04.608Z,13.10
2018-09-18T02:13:33.118Z,13.00
2018-09-18T02:16:01.682Z,12.90
2018-09-18T02:18:30.183Z,12.60
2018-09-18T02:20:58.625Z,12.60
2018-09-18T02:23:27.708Z,12.60
2018-09-18T02:25:56.229Z,12.60
2018-09-18T02:28:24.783Z,12.70
2018-09-18T02:30:53.246Z,12.60
2018-09-18T02:33:21.762Z,12.60
2018-09-18T02:35:50.257Z,12.60
2018-09-18T02:38:18.818Z,12.60
2018-09-18T02:40:47.351Z,12.70
2018-09-18T02:43:15.865Z,12.70
2018-09-18T02:45:44.399Z,12.60
2018-09-18T02:48:12.961Z,12.70
2018-09-18T02:50:41.426Z,12.80
2018-09-18T02:53:09.932Z,12.90
2018-09-18T02:55:38.476Z,13.00
2018-09-18T02:58:06.966Z,13.10
2018-09-18T03:00:35.472Z,13.10
2018-09-18T03:03:03.976Z,13.10
2018-09-18T03:05:32.508Z,13.10
2018-09-18T03:08:01.019Z,13.10
2018-09-18T03:10:29.609Z,13.10
2018-09-18T03:12:58.119Z,13.00
2018-09-18T03:15:26.647Z,12.90
2018-09-18T03:17:55.140Z,13.00
2018-09-18T03:20:23.581Z,13.00
2018-09-18T03:22:52.136Z,12.80
2018-09-18T03:25:20.640Z,12.70
2018-09-18T03:27:49.187Z,12.60
2018-09-18T03:30:17.660Z,12.60
2018-09-18T03:32:46.174Z,12.60
2018-09-18T03:35:14.703Z,12.30
2018-09-18T03:37:43.239Z,12.30
2018-09-18T03:40:11.684Z,12.50
2018-09-18T03:42:40.197Z,12.40
2018-09-18T03:45:13.235Z,12.40
2018-09-18T03:47:41.694Z,12.40
2018-09-18T03:50:10.292Z,12.50
2018-09-18T03:52:38.771Z,12.40
2018-09-18T03:55:07.352Z,12.40
2018-09-18T03:57:35.817Z,12.40
2018-09-18T04:00:07.766Z,12.50
2018-09-18T04:02:36.287Z,12.50
2018-09-18T04:05:04.841Z,12.40
2018-09-18T04:07:33.325Z,12.50
2018-09-18T04:10:01.815Z,12.50
2018-09-18T04:12:30.370Z,12.40
2018-09-18T04:14:58.860Z,12.40
2018-09-18T04:17:27.455Z,12.30
2018-09-18T04:19:55.912Z,12.30
2018-09-18T04:22:24.409Z,12.20
2018-09-18T04:24:52.978Z,12.10
2018-09-18T04:27:21.435Z,12.00
2018-09-18T04:29:49.945Z,12.10
2018-09-18T04:32:18.551Z,12.20
2018-09-18T04:34:47.129Z,12.30
2018-09-18T04:37:15.686Z,12.40
2018-09-18T04:39:44.243Z,12.40
2018-09-18T04:42:12.707Z,12.30
2018-09-18T04:44:41.249Z,12.30
2018-09-18T04:47:09.732Z,12.30
2018-09-18T04:49:38.265Z,12.40
2018-09-18T04:52:06.745Z,12.50
2018-09-18T04:54:35.285Z,12.50
2018-09-18T04:57:03.877Z,12.50
2018-09-18T04:59:32.446Z,12.60
2018-09-18T05:02:01.012Z,12.40
2018-09-18T05:04:29.574Z,12.20
2018-09-18T05:06:58.097Z,12.20
2018-09-18T05:09:26.734Z,12.20
2018-09-18T05:11:55.316Z,12.30
2018-09-18T05:14:23.866Z,12.30
2018-09-18T05:16:52.404Z,12.40
2018-09-18T05:19:20.909Z,12.40
2018-09-18T05:21:49.444Z,12.30
2018-09-18T05:24:18.087Z,12.30
2018-09-18T05:26:46.630Z,12.30
2018-09-18T05:29:15.132Z,12.30
2018-09-18T05:31:43.628Z,12.20
2018-09-18T05:34:12.188Z,12.10
2018-09-18T05:36:40.718Z,12.00
2018-09-18T05:39:10.502Z,12.00
2018-09-18T05:41:39.003Z,12.00
2018-09-18T05:44:07.801Z,12.00
2018-09-18T05:46:36.708Z,12.00
2018-09-18T05:49:05.258Z,12.20
2018-09-18T05:51:33.938Z,12.30
2018-09-18T05:54:02.767Z,12.40
2018-09-18T05:56:31.261Z,12.30
2018-09-18T05:58:59.767Z,12.30
2018-09-18T06:01:28.252Z,12.30
2018-09-18T06:03:56.786Z,12.30
2018-09-18T06:06:25.303Z,12.40
2018-09-18T06:08:53.857Z,12.40
2018-09-18T06:11:22.405Z,12.30
2018-09-18T06:13:50.880Z,12.50
2018-09-18T06:16:19.368Z,12.60
2018-09-18T06:18:48.038Z,12.60
2018-09-18T06:21:16.531Z,12.70
2018-09-18T06:23:45.072Z,12.70
2018-09-18T06:26:13.617Z,12.90
2018-09-18T06:28:42.142Z,12.90
2018-09-18T06:31:10.657Z,13.00
2018-09-18T06:33:39.233Z,13.10
2018-09-18T06:36:13.550Z,13.10
2018-09-18T06:38:42.103Z,13.10
2018-09-18T06:41:10.671Z,13.20
2018-09-18T06:43:39.208Z,13.30
2018-09-18T06:46:07.971Z,13.30
2018-09-18T06:48:36.747Z,13.40
2018-09-18T06:51:05.297Z,13.60
2018-09-18T06:53:33.783Z,13.70
2018-09-18T06:56:02.294Z,13.80
2018-09-18T06:58:30.765Z,13.90
2018-09-18T07:00:59.306Z,14.00
2018-09-18T07:03:27.888Z,14.10
2018-09-18T07:05:56.442Z,14.20
2018-09-18T07:08:24.998Z,14.20
2018-09-18T07:10:53.577Z,14.30
2018-09-18T07:13:22.065Z,14.50
2018-09-18T07:15:50.583Z,14.60
2018-09-18T07:18:19.299Z,14.60
2018-09-18T07:20:47.812Z,14.80
2018-09-18T07:23:16.354Z,14.90
2018-09-18T07:25:45.002Z,15.00
2018-09-18T07:28:14.639Z,15.10
2018-09-18T07:30:43.154Z,15.10
2018-09-18T07:33:11.691Z,15.30
2018-09-18T07:35:40.203Z,15.40
2018-09-18T07:38:08.744Z,15.70
2018-09-18T07:40:37.290Z,15.80
2018-09-18T07:43:05.989Z,16.10
2018-09-18T07:45:34.568Z,16.30
2018-09-18T07:48:03.066Z,16.40
2018-09-18T07:50:31.631Z,16.50
2018-09-18T07:53:00.118Z,16.60
2018-09-18T07:55:28.606Z,16.80
2018-09-18T07:57:57.135Z,17.00
2018-09-18T08:00:25.646Z,17.30
2018-09-18T08:02:54.183Z,17.60
2018-09-18T08:05:22.678Z,18.00
2018-09-18T08:07:51.187Z,18.30
2018-09-18T08:10:19.768Z,18.50
2018-09-18T08:12:48.304Z,18.60
2018-09-18T08:15:16.935Z,18.80
2018-09-18T08:17:45.465Z,19.00
2018-09-18T08:20:13.986Z,19.20
2018-09-18T08:22:42.534Z,19.50
2018-09-18T08:25:11.024Z,19.70
2018-09-18T08:27:39.597Z,19.90
2018-09-18T08:30:08.230Z,20.20
2018-09-18T08:32:36.856Z,20.30
2018-09-18T08:35:05.503Z,20.60
2018-09-18T08:37:34.241Z,20.90
2018-09-18T08:40:02.816Z,21.00
2018-09-18T08:42:31.523Z,21.20
2018-09-18T08:44:59.977Z,21.30
2018-09-18T08:47:28.601Z,21.50
2018-09-18T08:49:57.266Z,21.60
2018-09-18T08:52:25.862Z,22.20
2018-09-18T08:54:54.330Z,22.40
2018-09-18T08:57:22.862Z,22.50
2018-09-18T08:59:51.407Z,22.90
2018-09-18T09:02:19.954Z,22.90
2018-09-18T09:04:48.465Z,23.20
2018-09-18T09:07:17.013Z,23.20
2018-09-18T09:09:45.552Z,23.60
2018-09-18T09:12:14.029Z,23.80
2018-09-18T09:14:42.577Z,24.20
2018-09-18T09:17:11.156Z,24.40
2018-09-18T09:19:39.700Z,24.00
2018-09-18T09:22:08.305Z,24.50
2018-09-18T09:24:36.773Z,24.10
2018-09-18T09:27:12.923Z,24.50
2018-09-18T09:29:41.466Z,25.20
2018-09-18T09:32:10.145Z,25.80
2018-09-18T09:34:38.700Z,25.60
2018-09-18T09:37:07.360Z,25.80
2018-09-18T09:39:35.780Z,26.30
2018-09-18T09:42:04.261Z,26.50
2018-09-18T09:44:32.733Z,26.50
2018-09-18T09:47:01.248Z,26.60
2018-09-18T09:49:29.774Z,26.90
2018-09-18T09:51:58.327Z,26.80
2018-09-18T09:54:27.181Z,26.90
2018-09-18T09:56:55.806Z,26.70
2018-09-18T09:59:25.069Z,27.10
2018-09-18T10:01:59.076Z,27.60
2018-09-18T10:04:27.610Z,28.30
2018-09-18T10:06:56.071Z,28.50
2018-09-18T10:09:24.631Z,28.90
2018-09-18T10:11:53.147Z,29.30
2018-09-18T10:14:21.724Z,29.50
2018-09-18T10:16:50.186Z,29.80
2018-09-18T10:19:18.750Z,30.10
2018-09-18T10:21:47.288Z,29.90
2018-09-18T10:24:15.812Z,29.80
2018-09-18T10:26:44.468Z,30.60
2018-09-18T10:29:12.885Z,31.40
2018-09-18T10:31:41.467Z,30.90
2018-09-18T10:34:10.008Z,30.80
2018-09-18T10:36:38.576Z,31.20
2018-09-18T10:39:08.986Z,31.20
2018-09-18T10:41:37.545Z,31.40
2018-09-18T10:44:06.092Z,31.10
2018-09-18T10:46:35.007Z,31.50
2018-09-18T10:49:03.567Z,31.30
2018-09-18T10:51:32.109Z,31.50
2018-09-18T10:54:00.688Z,31.70
2018-09-18T10:56:29.214Z,31.10
2018-09-18T10:58:57.761Z,31.30
2018-09-18T11:01:26.276Z,30.90
2018-09-18T11:03:55.038Z,31.60
2018-09-18T11:06:23.651Z,30.60
2018-09-18T11:08:52.166Z,30.90
2018-09-18T11:11:20.807Z,30.30
2018-09-18T11:13:49.311Z,31.10
2018-09-18T11:16:17.846Z,31.20
2018-09-18T11:18:46.360Z,31.10
2018-09-18T11:21:15.185Z,31.10
2018-09-18T11:23:43.729Z,30.90
2018-09-18T11:26:12.227Z,31.00
2018-09-18T11:28:40.766Z,31.10
2018-09-18T11:31:09.396Z,31.00
2018-09-18T11:33:38.084Z,30.90
2018-09-18T11:36:13.453Z,31.40
2018-09-18T11:38:41.999Z,30.60
2018-09-18T11:41:10.632Z,30.70
2018-09-18T11:43:39.179Z,30.90
2018-09-18T11:46:07.979Z,31.60
2018-09-18T11:48:36.915Z,31.80
2018-09-18T11:51:05.519Z,31.60
2018-09-18T11:53:33.998Z,32.00
2018-09-18T11:56:02.577Z,32.20
2018-09-18T11:58:31.126Z,31.80
2018-09-18T12:00:59.658Z,31.90
2018-09-18T12:03:28.259Z,32.30
2018-09-18T12:05:56.741Z,32.60
2018-09-18T12:08:25.277Z,32.30
2018-09-18T12:10:53.745Z,31.90
2018-09-18T12:13:22.421Z,31.90
2018-09-18T12:15:51.041Z,32.40
2018-09-18T12:18:19.525Z,32.40
2018-09-18T12:20:48.090Z,32.60
2018-09-18T12:23:16.641Z,32.40
2018-09-18T12:25:45.237Z,32.60
2018-09-18T12:28:13.785Z,33.00
2018-09-18T12:30:43.372Z,32.50
2018-09-18T12:33:11.940Z,31.60
2018-09-18T12:35:40.595Z,32.20
2018-09-18T12:38:09.077Z,32.50
2018-09-18T12:40:37.793Z,32.10
2018-09-18T12:43:06.490Z,31.80
2018-09-18T12:45:34.974Z,31.90
2018-09-18T12:48:03.560Z,31.90
2018-09-18T12:50:32.069Z,31.80
2018-09-18T12:53:00.563Z,31.40
2018-09-18T12:55:29.119Z,31.60
2018-09-18T12:57:57.788Z,31.70
2018-09-18T13:00:26.552Z,31.60
2018-09-18T13:02:55.094Z,31.80
2018-09-18T13:05:23.636Z,31.80
2018-09-18T13:07:52.459Z,31.60
2018-09-18T13:10:20.915Z,31.60
2018-09-18T13:12:49.564Z,31.20
2018-09-18T13:15:18.114Z,31.30
2018-09-18T13:17:46.862Z,31.30
2018-09-18T13:20:15.556Z,31.20
2018-09-18T13:22:44.073Z,31.60
2018-09-18T13:25:12.602Z,31.50
2018-09-18T13:27:41.148Z,31.70
2018-09-18T13:30:09.590Z,31.80
2018-09-18T13:32:38.140Z,31.30
2018-09-18T13:35:06.816Z,31.40
2018-09-18T13:37:35.353Z,31.40
2018-09-18T13:40:03.995Z,31.50
2018-09-18T13:42:32.548Z,31.60
2018-09-18T13:45:01.063Z,31.00
2018-09-18T13:47:29.586Z,31.30
2018-09-18T13:49:58.151Z,31.40
2018-09-18T13:52:26.653Z,31.80
2018-09-18T13:54:55.278Z,31.70
2018-09-18T13:57:23.902Z,31.30
2018-09-18T13:59:52.442Z,31.00
2018-09-18T14:02:21.011Z,31.10
2018-09-18T14:04:49.518Z,30.90
2018-09-18T14:07:17.988Z,31.10
2018-09-18T14:09:47.480Z,31.00
2018-09-18T14:12:16.539Z,31.30
2018-09-18T14:14:45.101Z,31.40
2018-09-18T14:17:13.734Z,31.20
2018-09-18T14:19:42.248Z,31.20
2018-09-18T14:22:10.837Z,31.00
2018-09-18T14:24:39.413Z,30.80
2018-09-18T14:27:13.636Z,30.80
2018-09-18T14:29:42.340Z,31.00
2018-09-18T14:32:11.168Z,31.00
2018-09-18T14:34:39.717Z,30.90
2018-09-18T14:37:08.290Z,30.70
2018-09-18T14:39:36.841Z,30.60
2018-09-18T14:42:05.423Z,30.60
2018-09-18T14:44:33.971Z,30.50
2018-09-18T14:47:02.581Z,30.20
2018-09-18T14:49:31.080Z,30.00
2018-09-18T14:51:59.607Z,29.90
2018-09-18T14:54:28.318Z,29.80
2018-09-18T14:56:56.809Z,29.50
2018-09-18T14:59:25.289Z,29.30
2018-09-18T15:01:53.788Z,28.90
2018-09-18T15:04:22.311Z,28.70
2018-09-18T15:06:50.988Z,28.60
2018-09-18T15:09:19.729Z,28.50
2018-09-18T15:11:48.312Z,28.60
2018-09-18T15:14:16.823Z,28.70
2018-09-18T15:16:45.367Z,28.70
2018-09-18T15:19:14.223Z,28.80
2018-09-18T15:21:42.752Z,28.90
2018-09-18T15:24:11.212Z,28.90
2018-09-18T15:26:39.762Z,29.00
2018-09-18T15:29:08.288Z,29.00
2018-09-18T15:31:36.872Z,29.00
2018-09-18T15:34:05.454Z,29.00
2018-09-18T15:36:33.975Z,28.90
2018-09-18T15:39:02.612Z,28.90
2018-09-18T15:41:31.214Z,28.90
2018-09-18T15:43:59.741Z,28.80
2018-09-18T15:46:28.316Z,28.70
2018-09-18T15:48:56.836Z,28.70
2018-09-18T15:51:25.577Z,28.70
2018-09-18T15:53:54.006Z,28.70
2018-09-18T15:56:22.549Z,28.60
2018-09-18T15:58:51.494Z,28.60
2018-09-18T16:01:20.103Z,28.60
2018-09-18T16:03:48.671Z,28.50
2018-09-18T16:06:17.263Z,28.50
2018-09-18T16:08:45.826Z,28.50
2018-09-18T16:11:14.380Z,28.50
2018-09-18T16:13:42.915Z,28.50
2018-09-18T16:16:11.538Z,28.50
2018-09-18T16:18:40.065Z,28.60
2018-09-18T16:21:08.684Z,28.60
2018-09-18T16:23:37.281Z,28.50
2018-09-18T16:26:05.804Z,28.60
2018-09-18T16:28:34.390Z,28.60
2018-09-18T16:31:02.991Z,28.60
2018-09-18T16:33:31.589Z,28.50
2018-09-18T16:36:00.270Z,28.50
2018-09-18T16:38:28.914Z,28.40
2018-09-18T16:40:57.483Z,28.40
2018-09-18T16:43:26.053Z,28.20
2018-09-18T16:45:54.738Z,28.10
2018-09-18T16:48:23.282Z,28.10
2018-09-18T16:50:51.844Z,28.00
2018-09-18T16:53:20.428Z,27.80
2018-09-18T16:55:49.028Z,27.60
2018-09-18T16:58:17.519Z,27.50
2018-09-18T17:00:46.047Z,27.40
2018-09-18T17:03:14.516Z,27.30
2018-09-18T17:05:43.081Z,27.20
2018-09-18T17:08:11.630Z,27.10
2018-09-18T17:10:40.228Z,27.00
2018-09-18T17:13:08.741Z,26.80
2018-09-18T17:15:38.201Z,26.80
2018-09-18T17:18:12.833Z,26.70
2018-09-18T17:20:41.606Z,26.70
2018-09-18T17:23:10.117Z,26.40
2018-09-18T17:25:38.713Z,26.30
2018-09-18T17:28:07.291Z,26.30
2018-09-18T17:30:35.841Z,26.30
2018-09-18T17:33:04.354Z,26.20
2018-09-18T17:35:33.021Z,26.10
2018-09-18T17:38:01.451Z,25.90
2018-09-18T17:40:29.946Z,25.50
2018-09-18T17:42:58.511Z,25.50
2018-09-18T17:45:27.134Z,25.50
2018-09-18T17:47:55.753Z,25.50
2018-09-18T17:50:24.427Z,25.30
2018-09-18T17:52:52.980Z,25.20
2018-09-18T17:55:21.475Z,25.00
2018-09-18T17:57:49.999Z,25.00
2018-09-18T18:00:18.566Z,24.80
2018-09-18T18:02:47.095Z,24.70
2018-09-18T18:05:15.699Z,24.60
2018-09-18T18:07:44.314Z,24.50
2018-09-18T18:10:13.338Z,24.40
2018-09-18T18:12:41.891Z,24.30
2018-09-18T18:15:10.481Z,24.20
2018-09-18T18:17:39.148Z,24.10
2018-09-18T18:20:07.815Z,23.90
2018-09-18T18:22:36.407Z,23.80
2018-09-18T18:25:05.006Z,23.70
2018-09-18T18:27:33.618Z,23.60
2018-09-18T18:30:02.183Z,23.60
2018-09-18T18:32:30.757Z,23.60
2018-09-18T18:34:59.337Z,23.50
2018-09-18T18:37:27.898Z,23.40
2018-09-18T18:39:56.497Z,23.40
2018-09-18T18:42:25.070Z,23.40
2018-09-18T18:44:53.597Z,23.30
2018-09-18T18:47:22.161Z,23.20
2018-09-18T18:49:50.702Z,23.00
2018-09-18T18:52:19.231Z,23.10
2018-09-18T18:54:47.782Z,23.00
2018-09-18T18:57:16.358Z,23.00
2018-09-18T18:59:44.918Z,22.90
2018-09-18T19:02:13.461Z,22.80
2018-09-18T19:04:41.973Z,22.60
2018-09-18T19:07:10.506Z,22.50
2018-09-18T19:09:39.033Z,22.50
2018-09-18T19:12:07.638Z,22.30
2018-09-18T19:14:36.185Z,22.40
2018-09-18T19:17:04.722Z,22.10
2018-09-18T19:19:33.262Z,22.20
2018-09-18T19:22:01.799Z,22.00
2018-09-18T19:24:30.374Z,21.90
2018-09-18T19:26:58.951Z,21.90
2018-09-18T19:29:27.516Z,21.90
2018-09-18T19:31:56.106Z,21.80
2018-09-18T19:34:24.607Z,21.80
2018-09-18T19:36:53.142Z,21.60
2018-09-18T19:39:21.803Z,21.40
2018-09-18T19:41:50.288Z,21.70
2018-09-18T19:44:18.845Z,21.70
2018-09-18T19:46:47.352Z,21.60
2018-09-18T19:49:15.831Z,21.40
2018-09-18T19:51:44.340Z,21.40
2018-09-18T19:54:14.913Z,21.40
2018-09-18T19:56:43.424Z,21.50
2018-09-18T19:59:11.996Z,21.60
2018-09-18T20:01:40.556Z,21.60
2018-09-18T20:04:09.087Z,21.40
2018-09-18T20:06:37.613Z,21.40
2018-09-18T20:09:12.437Z,21.40
2018-09-18T20:11:40.969Z,21.30
2018-09-18T20:14:09.551Z,21.00
2018-09-18T20:16:38.117Z,21.00
2018-09-18T20:19:06.715Z,21.10
2018-09-18T20:21:35.284Z,21.00
2018-09-18T20:24:03.881Z,21.00
2018-09-18T20:26:32.444Z,21.00
2018-09-18T20:29:01.093Z,20.80
2018-09-18T20:31:29.525Z,20.70
2018-09-18T20:33:58.035Z,20.80
2018-09-18T20:36:26.640Z,20.90
2018-09-18T20:38:55.092Z,21.00
2018-09-18T20:41:23.624Z,20.90
2018-09-18T20:43:52.089Z,20.90
2018-09-18T20:46:20.605Z,20.90
2018-09-18T20:48:49.187Z,20.80
2018-09-18T20:51:17.742Z,20.90
2018-09-18T20:53:46.249Z,20.80
2018-09-18T20:56:14.788Z,20.60
2018-09-18T20:58:43.274Z,20.70
2018-09-18T21:01:11.811Z,20.50
2018-09-18T21:03:40.286Z,20.60
2018-09-18T21:06:08.815Z,20.60
2018-09-18T21:08:37.450Z,20.50
2018-09-18T21:11:06.041Z,20.50
2018-09-18T21:13:34.737Z,20.50
2018-09-18T21:16:03.258Z,20.50
2018-09-18T21:18:31.752Z,20.30
2018-09-18T21:21:00.343Z,20.50
2018-09-18T21:23:28.811Z,20.10
2018-09-18T21:26:00.614Z,20.40
2018-09-18T21:28:29.141Z,20.40
2018-09-18T21:30:57.612Z,20.30
2018-09-18T21:33:26.284Z,20.00
2018-09-18T21:35:54.812Z,20.20
2018-09-18T21:38:23.331Z,20.10
2018-09-18T21:40:51.918Z,20.20
2018-09-18T21:43:20.432Z,20.10
2018-09-18T21:45:49.271Z,20.00
2018-09-18T21:48:17.832Z,20.00
2018-09-18T21:50:46.339Z,20.00
2018-09-18T21:53:15.431Z,20.00
2018-09-18T21:55:44.754Z,19.90
2018-09-18T21:58:13.435Z,19.80
2018-09-18T22:00:42.373Z,19.80
2018-09-18T22:03:10.938Z,20.00
2018-09-18T22:05:39.493Z,19.90
2018-09-18T22:08:08.101Z,20.00
2018-09-18T22:10:36.634Z,19.70
2018-09-18T22:13:05.228Z,19.80
2018-09-18T22:15:33.952Z,19.70
2018-09-18T22:18:02.486Z,19.40
2018-09-18T22:20:31.828Z,19.60
2018-09-18T22:23:00.356Z,19.40
2018-09-18T22:25:28.931Z,19.40
2018-09-18T22:27:57.427Z,19.30
2018-09-18T22:30:25.906Z,19.40
2018-09-18T22:32:54.429Z,19.40
2018-09-18T22:35:22.865Z,19.50
2018-09-18T22:37:51.368Z,19.40
2018-09-18T22:40:19.861Z,19.30
2018-09-18T22:42:48.359Z,19.20
2018-09-18T22:45:16.889Z,19.30
2018-09-18T22:47:45.442Z,19.30
2018-09-18T22:50:13.960Z,19.30
2018-09-18T22:52:42.483Z,19.20
2018-09-18T22:55:10.959Z,19.10
2018-09-18T22:57:39.476Z,19.10
2018-09-18T23:00:15.420Z,19.10
2018-09-18T23:02:43.955Z,19.00
2018-09-18T23:05:12.458Z,19.10
2018-09-18T23:07:40.947Z,19.10
2018-09-18T23:10:09.491Z,18.80
2018-09-18T23:12:37.909Z,18.90
2018-09-18T23:15:06.472Z,18.90
2018-09-18T23:17:34.972Z,18.90
2018-09-18T23:20:03.544Z,18.50
2018-09-18T23:22:32.064Z,18.50
2018-09-18T23:25:00.585Z,18.60
2018-09-18T23:27:29.116Z,18.60
2018-09-18T23:29:57.649Z,18.80
2018-09-18T23:32:26.121Z,18.60
2018-09-18T23:34:54.600Z,18.60
2018-09-18T23:37:23.043Z,18.60
2018-09-18T23:39:51.549Z,18.50
2018-09-18T23:42:20.158Z,18.50
2018-09-18T23:44:48.568Z,18.00
2018-09-18T23:47:17.017Z,18.20
2018-09-18T23:49:45.518Z,18.20
2018-09-18T23:52:13.947Z,18.10
2018-09-18T23:54:42.412Z,18.30
2018-09-18T23:57:10.888Z,18.30
2018-09-18T23:59:39.446Z,18.30
